Aérodrome :
LOGIN :

S'inscrire | Disclaimer

   EN    FR    IT 

 










Légende :    VFR   VFR Marginal   IFR   IFR Intensif   IFR Très Intensif
Visi : 
Plafond : 
>= 8 km
>= 3000ft
5 à 8 km
1000 à 3000 ft
1500m à 5 km
500 à 1000 ft
800 à 1500m
200 à 500 ft
< 800m
< 200 ft
Symboles :   Orages  Brouillard  Fortes neiges  Fortes précipitations  Vent > 20 kt
SIGMETs :   Divers  Orages  Givrage  Turbulence  Onde Orograph.  Cendres Volcan.







- Altitude de l'aérodrome : 273 ft


EGXT - RAF Wittering Stamford

DERNIER METAR :
  • 220850Z 24009KT CAVOK 11/08 Q1017 BLU

METARs EXPIRÉS :
  • 220750Z 24009KT CAVOK 10/08 Q1017 BLU
  • 220650Z 24007KT CAVOK 10/08 Q1017 BLU
  • 220550Z AUTO 23008KT 9999 SCT170/// OVC210/// 09/08 Q1017

TAF TAF EGXT
Valide du 22 à 09h jusqu'au 22 à 18h UTC


220759Z 2209/2218 24008KT 9999 FEW022
PROB30
TEMPO 2212/2218 -RA SCT020
Pas de NOTAMs connus pour ce terrain.
3 SIGMETs publiés pour la FIR London (EGTT) :
 
Givrage fort
EGTT SIGMET 05 VALID 221000/221400 EGRR
EGTT LONDON FIR SEV ICE FCST WI N5013 W00212 - N5140 W00530 - N5229 W00432 - N5050 W00005 - N5013 W00212 FL060/150 MOV E 25KT NC=
Turbulence forte
EGTT SIGMET 04 VALID 220600/221000 EGRR
EGTT LONDON FIR SEV TURB FCST WI N5310 E00303 - N5500 W00425 - N5500 E00200 - N5310 E00303 FL220/360 MOV NE 25KT NC=
Givrage fort
EGTT SIGMET 03 VALID 220600/221000 EGRR
EGTT LONDON FIR SEV ICE FCST WI N5000 W00200 - N4928 W00445 - N5055 W00800 - N5100 W00800 - N5220 W00530 - N5000 W00038 - N5000 W00200 FL060/150 MOV E 25KT NC=



MET'MAP, la Météo Aéronautique d'un coup d'oeil ! - Copyright ORBIFLY Décembre 2007 - Disclaimer

ORBIFLY MET'MAP TEAM :

Programmation & Développement : Alexandra Zaïnal
Conception & Développement : Baudouin d'Aumeries
Co-Programmation & Développement : Marc-Olivier Méhu
Soutien technique & logistique : Manuel Goepfert

Contact : metmap@orbifly.com




SOURCES & CREDITS :

   NOAA